Elberta, UT

1:26 PM MST on February 13, 2016 (GMT -0700)
West Desert Airpark | | Change Station
CLOSE
Current Station
Personal Weather Station
Location: Fairfield, UT
Elevation: 4888 ft
Nearby Weather Stations

Elev 4888 ft 40.24 °N, 112.09 °W | Updated 6 seconds ago

Overcast
Overcast
29.3 °F
Feels Like 29 °F
N
0.0
Wind Variable Wind from WNW
Gusts 2.0 mph

Today
High -- | Low -- °F
--% Chance of Precip.
Yesterday
High -- | Low -- °F
Precip. -- in
Pressure 30.33 in
Visibility 0.5 miles
Clouds Overcast 300 ft
Windchill 29 °F
Dew Point 26 °F
Humidity 88%
Rainfall 0.00 in
Snow Depth Not available.
7:24 AM 6:00 PM
Waxing Crescent, 34% visible
METAR KPVU 131947Z 00000KT 1/2SM FZFG OVC003 M03/M04 A3033
Pressure 30.33 in
Visibility 0.5 miles
Clouds Overcast 300 ft
Windchill 29 °F
Dew Point 26 °F
Humidity 88%
Rainfall 0.00 in
Snow Depth Not available.
7:24 AM 6:00 PM
Waxing Crescent, 34% visible
METAR KPVU 131947Z 00000KT 1/2SM FZFG OVC003 M03/M04 A3033

10-Day Weather Forecast

Almanac

Astronomy

Feb. 13, 2016 Rise Set
Actual Time
Civil Twilight
Nautical Twilight
Astronomical Twilight
Moon
Length of Visible Light
Length of Day
Tomorrow will be .
, % of the Moon is Illuminated

Today's Extremes

State Highs State Lows

Community

WunderPhotos

Upload Photos

1,892,658 photos uploaded!

WunderBlog® & News

Nearby

Air Quality

  Air Quality AQ Index Pollutant
Not available.

Snow Depth

Station Depth Elevation

Earthquake Activity

City Distance Mag. Time & Date
Minimum magnitude displayed is 2.5.

Coastal Water Temperatures

Place Temperature

Stations

Nearby Weather Stations

Station Location Temp. Windchill Dew Point Humidity Wind Precip. Elev Updated Type
                   

Watches & Warnings

There are currently no watches in effect.